createdAt,value
2023-01-18T00:01:28.909Z,37.10
2023-01-18T00:03:59.606Z,27.17
2023-01-18T00:06:29.844Z,26.65
2023-01-18T00:08:56.781Z,27.25
2023-01-18T00:11:26.040Z,26.48
2023-01-18T00:13:56.814Z,31.67
2023-01-18T00:16:27.762Z,33.90
2023-01-18T00:18:59.637Z,28.95
2023-01-18T00:21:27.960Z,29.77
2023-01-18T00:23:57.010Z,30.05
2023-01-18T00:26:25.115Z,30.10
2023-01-18T00:28:55.086Z,30.88
2023-01-18T00:31:22.327Z,31.27
2023-01-18T00:33:50.675Z,23.85
2023-01-18T00:36:18.497Z,29.00
2023-01-18T00:38:51.718Z,30.80
2023-01-18T00:41:19.732Z,28.08
2023-01-18T00:43:47.253Z,30.05
2023-01-18T00:46:21.371Z,30.33
2023-01-18T00:48:49.468Z,30.13
2023-01-18T00:51:22.055Z,27.88
2023-01-18T00:56:21.894Z,29.08
2023-01-18T00:58:49.402Z,23.25
2023-01-18T01:01:18.107Z,26.98
2023-01-18T01:04:04.635Z,31.63
2023-01-18T01:06:46.747Z,28.35
2023-01-18T01:12:02.826Z,25.92
2023-01-18T01:14:48.392Z,27.30
2023-01-18T01:17:35.407Z,30.33
2023-01-18T01:20:22.957Z,32.22
2023-01-18T01:23:08.805Z,30.90
2023-01-18T01:25:57.598Z,26.48
2023-01-18T01:28:28.404Z,24.67
2023-01-18T01:31:00.958Z,34.22
2023-01-18T01:36:07.239Z,26.70
2023-01-18T01:38:35.453Z,24.55
2023-01-18T01:41:06.819Z,23.83
2023-01-18T01:43:57.625Z,25.75
2023-01-18T01:46:28.232Z,28.88
2023-01-18T01:49:19.822Z,25.33
2023-01-18T01:51:56.712Z,24.90
2023-01-18T01:54:32.321Z,25.90
2023-01-18T01:57:10.961Z,23.30
2023-01-18T01:59:46.128Z,30.20
2023-01-18T02:02:15.158Z,25.45
2023-01-18T02:04:46.638Z,23.75
2023-01-18T02:07:14.174Z,26.98
2023-01-18T02:09:49.666Z,23.88
2023-01-18T02:12:17.099Z,24.27
2023-01-18T02:15:54.254Z,26.13
2023-01-18T02:18:32.555Z,24.90
2023-01-18T02:21:20.182Z,25.42
2023-01-18T02:24:09.039Z,23.67
2023-01-18T02:26:49.724Z,23.45
2023-01-18T02:29:29.080Z,23.58
2023-01-18T02:32:26.007Z,21.77
2023-01-18T02:35:00.279Z,21.27
2023-01-18T02:38:09.864Z,24.05
2023-01-18T02:40:57.185Z,20.35
2023-01-18T02:43:44.011Z,21.02
2023-01-18T02:46:46.812Z,19.45
2023-01-18T02:49:21.388Z,19.45
2023-01-18T02:51:49.360Z,19.30
2023-01-18T02:54:24.553Z,26.50
2023-01-18T02:56:54.134Z,18.80
2023-01-18T02:59:34.815Z,21.05
2023-01-18T03:02:04.983Z,19.20
2023-01-18T03:04:38.285Z,23.38
2023-01-18T03:07:34.153Z,24.33
2023-01-18T03:10:05.553Z,29.00
2023-01-18T03:12:53.690Z,23.58
2023-01-18T03:15:45.446Z,25.88
2023-01-18T03:18:31.030Z,26.27
2023-01-18T03:21:01.008Z,20.70
2023-01-18T03:23:41.138Z,26.95
2023-01-18T03:26:16.520Z,28.95
2023-01-18T03:29:11.086Z,24.50
2023-01-18T03:32:35.556Z,25.73
2023-01-18T03:35:14.094Z,24.83
2023-01-18T03:37:45.016Z,25.90
2023-01-18T03:40:25.453Z,25.80
2023-01-18T03:43:14.223Z,23.77
2023-01-18T03:46:00.515Z,28.27
2023-01-18T03:48:31.418Z,25.05
2023-01-18T03:51:30.480Z,29.55
2023-01-18T03:54:15.344Z,28.52
2023-01-18T03:57:01.170Z,33.15
2023-01-18T03:59:39.652Z,28.83
2023-01-18T04:02:09.967Z,30.27
2023-01-18T04:04:38.026Z,36.75
2023-01-18T04:07:06.513Z,31.27
2023-01-18T04:09:33.656Z,33.63
2023-01-18T04:12:01.696Z,28.63
2023-01-18T04:14:30.930Z,32.88
2023-01-18T04:17:00.093Z,30.58
2023-01-18T04:19:44.022Z,30.77
2023-01-18T04:22:11.333Z,30.48
2023-01-18T04:24:42.684Z,34.80
2023-01-18T04:27:09.648Z,32.33
2023-01-18T04:29:36.827Z,31.38
2023-01-18T04:32:07.194Z,36.05
2023-01-18T04:34:34.432Z,29.63
2023-01-18T04:37:01.473Z,32.13
2023-01-18T04:39:30.338Z,29.23
2023-01-18T04:41:57.935Z,33.42
2023-01-18T04:44:41.240Z,30.25
2023-01-18T04:47:12.188Z,31.50
2023-01-18T04:49:49.412Z,35.67
2023-01-18T04:52:19.202Z,31.23
2023-01-18T04:54:46.373Z,30.55
2023-01-18T04:58:04.742Z,33.78
2023-01-18T05:00:33.018Z,25.33
2023-01-18T05:03:56.356Z,33.72
2023-01-18T05:06:52.679Z,31.13
2023-01-18T05:09:44.636Z,31.88
2023-01-18T05:12:12.039Z,30.98
2023-01-18T05:14:41.048Z,32.30
2023-01-18T05:17:18.409Z,31.02
2023-01-18T05:19:46.793Z,31.17
2023-01-18T05:22:44.711Z,30.25
2023-01-18T05:25:14.755Z,29.20
2023-01-18T05:27:45.214Z,26.42
2023-01-18T05:30:39.319Z,31.35
2023-01-18T05:33:42.638Z,32.63
2023-01-18T05:36:36.585Z,28.35
2023-01-18T05:39:19.011Z,31.77
2023-01-18T05:41:46.037Z,30.83
2023-01-18T05:44:42.733Z,30.65
2023-01-18T05:47:09.792Z,38.70
2023-01-18T05:50:03.240Z,30.38
2023-01-18T05:52:30.385Z,35.00
2023-01-18T05:54:59.620Z,33.97
2023-01-18T05:57:41.069Z,29.75
2023-01-18T06:00:15.947Z,27.95
2023-01-18T06:03:10.838Z,30.27
2023-01-18T06:05:41.089Z,27.23
2023-01-18T06:08:13.328Z,30.80
2023-01-18T06:10:44.103Z,28.17
2023-01-18T06:13:12.896Z,28.17
2023-01-18T06:15:40.683Z,28.05
2023-01-18T06:18:09.149Z,23.95
2023-01-18T06:20:37.923Z,26.98
2023-01-18T06:23:05.043Z,24.55
2023-01-18T06:25:31.950Z,27.77
2023-01-18T06:27:59.824Z,26.10
2023-01-18T06:30:27.901Z,29.13
2023-01-18T06:32:56.156Z,33.20
2023-01-18T06:35:23.273Z,24.80
2023-01-18T06:37:51.477Z,28.90
2023-01-18T06:40:21.978Z,30.65
2023-01-18T06:42:49.134Z,29.73
2023-01-18T06:45:18.139Z,34.53
2023-01-18T06:47:49.568Z,27.90
2023-01-18T06:50:16.935Z,31.10
2023-01-18T06:52:44.673Z,29.35
2023-01-18T06:55:12.995Z,31.20
2023-01-18T06:57:40.047Z,30.77
2023-01-18T07:00:10.346Z,31.40
2023-01-18T07:02:38.272Z,32.83
2023-01-18T07:05:05.824Z,30.17
2023-01-18T07:07:33.175Z,30.90
2023-01-18T07:10:02.373Z,30.90
2023-01-18T07:12:29.536Z,34.58
2023-01-18T07:15:00.415Z,38.70
2023-01-18T07:17:29.561Z,33.00
2023-01-18T07:19:56.468Z,31.88
2023-01-18T07:22:26.807Z,35.85
2023-01-18T07:24:57.081Z,35.70
2023-01-18T07:27:30.059Z,30.77
2023-01-18T07:29:56.903Z,33.80
2023-01-18T07:32:23.756Z,32.33
2023-01-18T07:34:51.845Z,31.20
2023-01-18T07:37:21.827Z,32.03
2023-01-18T07:39:49.434Z,27.23
2023-01-18T07:42:16.320Z,29.65
2023-01-18T07:44:43.444Z,34.88
2023-01-18T07:47:10.415Z,31.05
2023-01-18T07:49:41.308Z,31.55
2023-01-18T07:52:08.267Z,33.58
2023-01-18T07:54:38.331Z,30.02
2023-01-18T07:57:08.484Z,31.15
2023-01-18T07:59:35.450Z,35.97
2023-01-18T08:02:04.169Z,32.72
2023-01-18T08:04:34.671Z,34.92
2023-01-18T08:07:02.560Z,34.10
2023-01-18T08:09:29.635Z,34.55
2023-01-18T08:11:57.047Z,30.70
2023-01-18T08:14:23.954Z,30.08
2023-01-18T08:16:50.963Z,32.13
2023-01-18T08:19:23.404Z,33.45
2023-01-18T08:21:50.386Z,33.58
2023-01-18T08:24:18.268Z,31.95
2023-01-18T08:26:45.211Z,28.30
2023-01-18T08:29:12.578Z,34.45
2023-01-18T08:31:39.727Z,32.03
2023-01-18T08:34:06.622Z,29.40
2023-01-18T08:36:33.577Z,27.15
2023-01-18T08:39:00.614Z,29.27
2023-01-18T08:41:29.516Z,28.08
2023-01-18T08:43:57.274Z,28.73
2023-01-18T08:46:25.213Z,28.20
2023-01-18T08:48:53.449Z,22.98
2023-01-18T08:51:23.126Z,25.98
2023-01-18T08:53:54.436Z,31.15
2023-01-18T08:56:21.544Z,23.17
2023-01-18T08:58:52.293Z,27.80
2023-01-18T09:01:23.608Z,31.10
2023-01-18T09:03:56.218Z,32.25
2023-01-18T09:06:32.096Z,29.60
2023-01-18T09:09:01.697Z,31.00
2023-01-18T09:11:31.728Z,32.75
2023-01-18T09:14:01.675Z,29.98
2023-01-18T09:16:30.304Z,39.03
2023-01-18T09:18:59.834Z,24.58
2023-01-18T09:21:30.196Z,21.52
2023-01-18T09:23:58.142Z,29.60
2023-01-18T09:26:25.301Z,26.25
2023-01-18T09:28:53.446Z,26.55
2023-01-18T09:31:22.376Z,25.48
2023-01-18T09:33:53.652Z,27.40
2023-01-18T09:36:26.665Z,33.23
2023-01-18T09:39:00.487Z,26.02
2023-01-18T09:41:39.409Z,31.63
2023-01-18T09:44:20.406Z,29.17
2023-01-18T09:46:55.627Z,29.75
2023-01-18T09:49:37.237Z,26.17
2023-01-18T09:52:16.094Z,31.40
2023-01-18T09:54:57.327Z,29.42
2023-01-18T09:57:44.733Z,24.20
2023-01-18T10:00:33.597Z,29.52
2023-01-18T10:03:08.508Z,25.63
2023-01-18T10:06:08.361Z,22.88
2023-01-18T10:08:57.594Z,22.70
2023-01-18T10:11:34.281Z,21.38
2023-01-18T10:14:15.295Z,17.85
2023-01-18T10:16:42.178Z,27.38
2023-01-18T10:19:21.633Z,19.15
2023-01-18T10:21:58.961Z,21.55
2023-01-18T10:24:41.502Z,20.75
2023-01-18T10:27:36.878Z,23.65
2023-01-18T10:30:14.699Z,21.63
2023-01-18T10:32:50.524Z,21.88
2023-01-18T10:35:41.065Z,26.05
2023-01-18T10:38:17.898Z,12.55
2023-01-18T10:40:54.248Z,23.23
2023-01-18T10:43:25.423Z,16.60
2023-01-18T10:45:54.618Z,20.83
2023-01-18T10:48:21.503Z,18.50
2023-01-18T10:51:01.814Z,17.17
2023-01-18T10:53:39.355Z,17.42
2023-01-18T10:56:26.883Z,15.73
2023-01-18T10:59:00.301Z,18.40
2023-01-18T11:01:34.754Z,15.82
2023-01-18T11:04:07.754Z,14.55
2023-01-18T11:06:50.512Z,17.80
2023-01-18T11:09:53.864Z,17.58
2023-01-18T11:12:34.462Z,15.05
2023-01-18T11:15:15.548Z,11.27
2023-01-18T11:17:56.143Z,35.55
2023-01-18T11:20:50.358Z,16.63
2023-01-18T11:23:21.916Z,19.52
2023-01-18T11:26:00.634Z,13.48
2023-01-18T11:28:37.610Z,14.27
2023-01-18T11:31:46.613Z,12.32
2023-01-18T11:34:29.789Z,12.43
2023-01-18T11:37:00.981Z,11.45
2023-01-18T11:39:45.545Z,11.98
2023-01-18T11:42:37.767Z,19.02
2023-01-18T11:45:22.566Z,14.05
2023-01-18T11:48:14.550Z,14.57
2023-01-18T11:50:54.155Z,11.82
2023-01-18T11:53:54.327Z,16.88
2023-01-18T11:56:42.595Z,15.20
2023-01-18T11:59:33.910Z,14.13
2023-01-18T12:02:00.846Z,10.73
2023-01-18T12:04:33.113Z,12.07
2023-01-18T12:07:28.107Z,11.18
2023-01-18T12:09:58.167Z,14.95
2023-01-18T12:12:41.096Z,11.15
2023-01-18T12:15:47.289Z,17.73
2023-01-18T12:19:00.136Z,10.57
2023-01-18T12:21:49.923Z,9.48
2023-01-18T12:24:54.722Z,12.52
2023-01-18T12:27:32.750Z,13.30
2023-01-18T12:30:14.240Z,12.13
2023-01-18T12:33:17.592Z,14.70
2023-01-18T12:38:34.628Z,14.77
2023-01-18T12:41:13.510Z,10.50
2023-01-18T12:44:17.163Z,11.73
2023-01-18T12:47:36.482Z,15.80
2023-01-18T12:50:07.956Z,9.05
2023-01-18T12:52:43.852Z,13.27
2023-01-18T12:55:21.362Z,8.27
2023-01-18T12:57:54.800Z,11.48
2023-01-18T13:00:52.139Z,13.63
2023-01-18T13:03:25.966Z,10.05
2023-01-18T13:06:01.474Z,13.23
2023-01-18T13:08:49.682Z,10.00
2023-01-18T13:11:24.233Z,13.82
2023-01-18T13:13:59.744Z,14.70
2023-01-18T13:16:31.738Z,11.32
2023-01-18T13:19:12.583Z,13.38
2023-01-18T13:22:00.290Z,11.55
2023-01-18T13:24:36.677Z,17.98
2023-01-18T13:27:16.284Z,17.05
2023-01-18T13:29:46.628Z,12.60
2023-01-18T13:32:29.716Z,18.40
2023-01-18T13:35:18.107Z,14.95
2023-01-18T13:37:55.750Z,15.13
2023-01-18T13:40:43.942Z,8.00
2023-01-18T13:43:33.569Z,14.63
2023-01-18T13:46:22.818Z,13.70
2023-01-18T13:49:04.212Z,6.43
2023-01-18T13:51:39.996Z,12.23
2023-01-18T13:54:11.657Z,14.07
2023-01-18T13:56:40.509Z,10.25
2023-01-18T13:59:18.646Z,11.50
2023-01-18T14:01:49.694Z,14.60
2023-01-18T14:04:24.334Z,10.73
2023-01-18T14:06:56.822Z,14.50
2023-01-18T14:09:40.258Z,11.95
2023-01-18T14:12:07.745Z,12.00
2023-01-18T14:14:59.157Z,13.30
2023-01-18T14:17:27.174Z,14.25
2023-01-18T14:20:00.347Z,10.95
2023-01-18T14:22:41.526Z,13.10
2023-01-18T14:25:20.632Z,17.20
2023-01-18T14:28:11.380Z,11.88
2023-01-18T14:30:42.805Z,14.18
2023-01-18T14:33:23.802Z,13.80
2023-01-18T14:35:58.133Z,10.15
2023-01-18T14:38:29.740Z,11.77
2023-01-18T14:41:07.984Z,13.63
2023-01-18T14:43:49.284Z,10.48
2023-01-18T14:46:29.970Z,12.68
2023-01-18T14:49:01.808Z,11.23
2023-01-18T14:51:32.528Z,13.40
2023-01-18T14:54:05.285Z,13.55
2023-01-18T14:56:44.156Z,10.50
2023-01-18T14:59:27.772Z,9.95
2023-01-18T15:02:02.830Z,15.18
2023-01-18T15:04:39.257Z,12.82
2023-01-18T15:07:13.755Z,9.02
2023-01-18T15:09:45.789Z,8.90
2023-01-18T15:12:17.618Z,15.23
2023-01-18T15:18:59.779Z,14.43
2023-01-18T15:21:31.908Z,8.32
2023-01-18T15:24:06.995Z,11.57
2023-01-18T15:26:45.025Z,9.18
2023-01-18T15:29:25.972Z,8.35
2023-01-18T15:32:02.536Z,10.52
2023-01-18T15:34:38.082Z,11.13
2023-01-18T15:37:14.330Z,8.85
2023-01-18T15:39:58.265Z,9.65
2023-01-18T15:42:36.869Z,12.50
2023-01-18T15:45:05.662Z,11.98
2023-01-18T15:47:38.452Z,11.40
2023-01-18T15:50:22.779Z,11.88
2023-01-18T15:53:43.311Z,11.40
2023-01-18T15:56:29.170Z,8.68
2023-01-18T15:59:03.095Z,16.33
2023-01-18T16:01:35.192Z,11.52
2023-01-18T16:04:09.508Z,12.60
2023-01-18T16:09:23.236Z,11.90
2023-01-18T16:12:00.454Z,14.80
2023-01-18T16:14:35.753Z,11.00
2023-01-18T16:17:16.090Z,10.98
2023-01-18T16:19:52.124Z,11.63
2023-01-18T16:22:28.603Z,12.48
2023-01-18T16:25:03.477Z,13.45
2023-01-18T16:27:32.437Z,12.85
2023-01-18T16:30:08.066Z,12.68
2023-01-18T16:32:38.636Z,10.93
2023-01-18T16:35:10.910Z,12.45
2023-01-18T16:37:43.378Z,12.68
2023-01-18T16:40:19.772Z,11.88
2023-01-18T16:43:05.988Z,12.07
2023-01-18T16:45:45.055Z,12.10
2023-01-18T16:48:21.766Z,19.55
2023-01-18T16:50:49.737Z,10.93
2023-01-18T16:53:19.459Z,10.45
2023-01-18T16:55:48.469Z,15.13
2023-01-18T16:58:17.022Z,11.95
2023-01-18T17:00:59.224Z,13.18
2023-01-18T17:03:30.881Z,12.98
2023-01-18T17:05:59.228Z,14.50
2023-01-18T17:08:26.567Z,13.48
2023-01-18T17:10:55.142Z,13.18
2023-01-18T17:13:35.008Z,15.88
2023-01-18T17:16:02.818Z,13.38
2023-01-18T17:18:33.576Z,16.15
2023-01-18T17:21:07.213Z,14.65
2023-01-18T17:23:36.425Z,14.50
2023-01-18T17:26:05.903Z,13.57
2023-01-18T17:28:39.985Z,11.35
2023-01-18T17:31:13.810Z,13.75
2023-01-18T17:36:23.625Z,10.98
2023-01-18T17:38:52.945Z,14.95
2023-01-18T17:41:27.664Z,16.25
2023-01-18T17:43:56.544Z,16.92
2023-01-18T17:46:30.639Z,20.27
2023-01-18T17:48:57.684Z,16.13
2023-01-18T17:51:26.178Z,14.82
2023-01-18T17:53:54.836Z,17.27
2023-01-18T17:56:22.387Z,17.02
2023-01-18T17:58:50.727Z,11.90
2023-01-18T18:01:19.959Z,18.65
2023-01-18T18:03:49.611Z,15.68
2023-01-18T18:06:30.064Z,20.23
2023-01-18T18:09:05.556Z,12.55
2023-01-18T18:11:35.210Z,11.70
2023-01-18T18:14:03.266Z,10.38
2023-01-18T18:16:30.634Z,11.57
2023-01-18T18:18:59.165Z,12.85
2023-01-18T18:21:27.554Z,16.50
2023-01-18T18:23:55.164Z,14.20
2023-01-18T18:26:25.957Z,12.88
2023-01-18T18:28:54.979Z,15.18
2023-01-18T18:31:23.558Z,15.05
2023-01-18T18:33:50.698Z,11.65
2023-01-18T18:36:18.776Z,16.63
2023-01-18T18:38:49.288Z,17.88
2023-01-18T18:41:43.958Z,16.77
2023-01-18T18:44:18.654Z,14.32
2023-01-18T18:47:13.574Z,17.02
2023-01-18T18:49:43.685Z,12.57
2023-01-18T18:52:17.848Z,17.98
2023-01-18T18:54:47.983Z,15.27
2023-01-18T18:57:16.198Z,20.65
2023-01-18T18:59:44.321Z,20.80
2023-01-18T19:02:15.302Z,17.27
2023-01-18T19:04:43.336Z,20.33
2023-01-18T19:07:11.587Z,23.25
2023-01-18T19:09:43.639Z,16.60
2023-01-18T19:12:11.623Z,20.23
2023-01-18T19:14:42.304Z,20.60
2023-01-18T19:17:11.653Z,15.80
2023-01-18T19:19:41.693Z,17.13
2023-01-18T19:22:09.761Z,20.17
2023-01-18T19:24:41.147Z,21.23
2023-01-18T19:27:09.387Z,18.77
2023-01-18T19:29:39.610Z,18.08
2023-01-18T19:32:06.897Z,17.75
2023-01-18T19:34:40.054Z,20.02
2023-01-18T19:37:10.075Z,12.95
2023-01-18T19:39:41.871Z,20.13
2023-01-18T19:42:09.153Z,17.50
2023-01-18T19:44:39.168Z,19.75
2023-01-18T19:47:09.362Z,20.27
2023-01-18T19:49:40.792Z,22.02
2023-01-18T19:52:11.415Z,13.68
2023-01-18T19:54:41.013Z,19.70
2023-01-18T19:57:15.750Z,19.63
2023-01-18T19:59:43.402Z,20.15
2023-01-18T20:02:33.200Z,20.83
2023-01-18T20:09:35.068Z,20.60
2023-01-18T20:12:10.041Z,17.35
2023-01-18T20:14:41.604Z,24.38
2023-01-18T20:17:14.751Z,16.65
2023-01-18T20:19:44.852Z,18.50
2023-01-18T20:22:14.751Z,22.20
2023-01-18T20:24:46.047Z,20.38
2023-01-18T20:27:17.231Z,27.25
2023-01-18T20:29:49.512Z,24.30
2023-01-18T20:32:17.923Z,23.98
2023-01-18T20:34:47.049Z,25.15
2023-01-18T20:37:19.327Z,22.40
2023-01-18T20:39:47.446Z,25.35
2023-01-18T20:42:15.729Z,26.25
2023-01-18T20:44:49.629Z,18.52
2023-01-18T20:47:17.999Z,27.27
2023-01-18T20:49:49.101Z,20.42
2023-01-18T20:55:37.948Z,21.42
2023-01-18T20:58:09.955Z,22.65
2023-01-18T21:00:38.362Z,23.90
2023-01-18T21:03:07.386Z,27.65
2023-01-18T21:05:35.020Z,21.45
2023-01-18T21:08:05.468Z,28.95
2023-01-18T21:10:38.767Z,26.83
2023-01-18T21:13:07.742Z,28.80
2023-01-18T21:15:35.070Z,27.70
2023-01-18T21:18:06.699Z,22.55
2023-01-18T21:20:35.068Z,30.70
2023-01-18T21:23:11.635Z,22.52
2023-01-18T21:25:50.202Z,29.05
2023-01-18T21:28:18.692Z,29.20
2023-01-18T21:30:45.652Z,20.58
2023-01-18T21:33:12.688Z,26.58
2023-01-18T21:35:39.599Z,32.13
2023-01-18T21:38:08.643Z,25.75
2023-01-18T21:40:38.940Z,23.15
2023-01-18T21:43:24.666Z,27.05
2023-01-18T21:45:56.702Z,25.75
2023-01-18T21:48:25.478Z,27.80
2023-01-18T21:51:12.743Z,29.88
2023-01-18T21:54:00.656Z,25.20
2023-01-18T21:56:28.141Z,28.05
2023-01-18T21:58:58.001Z,28.00
2023-01-18T22:01:34.223Z,21.20
2023-01-18T22:04:26.166Z,29.50
2023-01-18T22:06:54.236Z,25.20
2023-01-18T22:09:23.452Z,31.92
2023-01-18T22:11:51.495Z,26.92
2023-01-18T22:14:19.534Z,27.73
2023-01-18T22:16:48.495Z,27.00
2023-01-18T22:19:16.538Z,27.02
2023-01-18T22:21:47.501Z,25.33
2023-01-18T22:24:16.672Z,27.30
2023-01-18T22:26:45.520Z,25.63
2023-01-18T22:29:13.570Z,27.17
2023-01-18T22:31:41.532Z,20.58
2023-01-18T22:34:19.252Z,24.45
2023-01-18T22:36:50.098Z,25.33
2023-01-18T22:39:19.525Z,19.73
2023-01-18T22:41:46.385Z,27.10
2023-01-18T22:44:16.499Z,27.27
2023-01-18T22:46:44.490Z,31.63
2023-01-18T22:49:13.428Z,32.20
2023-01-18T22:51:40.560Z,24.30
2023-01-18T22:54:09.108Z,23.75
2023-01-18T22:56:37.066Z,29.15
2023-01-18T22:59:06.492Z,31.83
2023-01-18T23:01:34.153Z,29.67
2023-01-18T23:04:04.810Z,32.70
2023-01-18T23:06:47.931Z,19.40
2023-01-18T23:09:18.870Z,28.05
2023-01-18T23:11:51.671Z,25.50
2023-01-18T23:14:40.394Z,27.02
2023-01-18T23:17:39.075Z,29.27
2023-01-18T23:20:15.413Z,27.45
2023-01-18T23:22:46.623Z,26.52
2023-01-18T23:25:18.711Z,19.45
2023-01-18T23:27:51.075Z,26.77
2023-01-18T23:30:28.590Z,26.73
2023-01-18T23:32:58.427Z,19.00
2023-01-18T23:35:30.831Z,32.63
2023-01-18T23:38:01.167Z,28.65
2023-01-18T23:40:46.857Z,21.33
2023-01-18T23:43:32.843Z,29.48
2023-01-18T23:46:19.964Z,34.78
2023-01-18T23:49:07.990Z,34.30
2023-01-18T23:51:55.119Z,27.67
2023-01-18T23:54:23.380Z,37.55
2023-01-18T23:56:50.299Z,29.65
2023-01-18T23:59:18.439Z,32.08
